Time;durP1;ratioP1;P1;durP2;ratioP2;P2;SDS_P1;SDS_P2;PMS_P1;PMS_P2;Temp;Humidity;BMP_temperature;BMP_pressure;BME280_temperature;BME280_humidity;BME280_pressure;Samples;Min_cycle;Max_cycle;Signal;HPM_P1;HPM_P2
2022/05/04 00:02:23;;;;;;;29.15;18.45;;;;;;;8.55;63.54;100255.97;2229253;78;20997;-76
2022/05/04 00:05:25;;;;;;;25.17;15.53;;;;;;;8.51;63.73;100251.48;2225754;79;21429;-76
2022/05/04 00:08:26;;;;;;;22.17;15.60;;;;;;;8.48;63.70;100252.28;2225509;79;20995;-79
2022/05/04 00:11:27;;;;;;;24.90;16.27;;;;;;;8.44;63.90;100253.55;2221359;79;22173;-78
2022/05/04 00:14:29;;;;;;;27.50;18.05;;;;;;;8.40;64.29;100256.98;2218737;79;21490;-80
2022/05/04 00:17:31;;;;;;;25.52;17.52;;;;;;;8.36;64.60;100258.22;2214190;79;20974;-80
2022/05/04 00:20:32;;;;;;;23.20;15.90;;;;;;;8.33;64.71;100260.34;2258208;77;20990;-77
2022/05/04 00:23:34;;;;;;;27.62;17.55;;;;;;;8.30;64.67;100258.81;2255813;77;20934;-78
2022/05/04 00:26:35;;;;;;;25.57;17.32;;;;;;;8.22;64.63;100259.58;2260887;77;21016;-78
2022/05/04 00:29:37;;;;;;;25.27;15.88;;;;;;;8.17;64.90;100261.00;2258020;77;21003;-78
2022/05/04 00:32:38;;;;;;;28.50;15.18;;;;;;;8.12;65.21;100258.80;2258060;77;20984;-79
2022/05/04 00:35:39;;;;;;;19.87;14.40;;;;;;;8.01;65.38;100257.67;2257925;77;21030;-78
2022/05/04 00:38:41;;;;;;;22.17;15.35;;;;;;;7.98;65.54;100260.11;2257789;77;21457;-76
2022/05/04 00:41:42;;;;;;;25.23;15.25;;;;;;;8.00;65.57;100256.84;2254407;77;20959;-78
2022/05/04 00:44:46;;;;;;;25.12;15.75;;;;;;;8.05;65.51;100257.23;2257315;77;20982;-77
2022/05/04 00:47:47;;;;;;;20.60;14.60;;;;;;;8.11;65.52;100259.78;2252841;77;21033;-76
2022/05/04 00:50:51;;;;;;;22.75;15.13;;;;;;;8.21;65.45;100261.03;2255845;77;21022;-77
2022/05/04 00:53:53;;;;;;;20.82;14.78;;;;;;;8.29;65.32;100263.77;2253494;77;21054;-77
2022/05/04 00:56:55;;;;;;;25.00;15.35;;;;;;;8.37;65.41;100264.36;2262845;77;20965;-79
2022/05/04 00:59:56;;;;;;;23.32;14.35;;;;;;;8.43;65.57;100270.41;2251564;77;20955;-78
2022/05/04 01:02:58;;;;;;;23.42;15.35;;;;;;;8.49;65.76;100266.66;2262601;77;20955;-78
2022/05/04 01:05:59;;;;;;;25.60;15.28;;;;;;;8.51;65.72;100271.81;2252028;77;20994;-77
2022/05/04 01:09:00;;;;;;;25.17;15.53;;;;;;;8.51;65.59;100263.87;2257985;77;21009;-78
2022/05/04 01:12:02;;;;;;;23.70;15.72;;;;;;;8.51;65.61;100266.03;2256677;77;21036;-77
2022/05/04 01:15:05;;;;;;;20.70;14.87;;;;;;;8.53;65.51;100264.08;2260612;77;21006;-78
2022/05/04 01:18:07;;;;;;;21.90;15.70;;;;;;;8.61;65.57;100267.77;2262327;77;20965;-79
2022/05/04 01:21:08;;;;;;;22.65;14.18;;;;;;;8.66;65.64;100275.59;2261563;77;21520;-77
2022/05/04 01:24:10;;;;;;;22.17;14.20;;;;;;;8.67;65.81;100275.95;2217675;79;20974;-78
2022/05/04 01:27:11;;;;;;;19.90;14.13;;;;;;;8.68;65.87;100276.28;2221234;79;21010;-78
2022/05/04 01:30:13;;;;;;;21.48;13.62;;;;;;;8.67;65.77;100283.89;2257064;78;21007;-78
2022/05/04 01:33:15;;;;;;;21.97;14.18;;;;;;;8.70;65.87;100282.27;2196386;79;20931;-78
2022/05/04 01:36:16;;;;;;;18.95;13.03;;;;;;;8.75;65.89;100283.11;2226088;79;21014;-79
2022/05/04 01:39:17;;;;;;;24.02;13.83;;;;;;;8.83;65.91;100284.52;2226108;79;21501;-77
2022/05/04 01:42:23;;;;;;;20.50;13.53;;;;;;;8.91;65.90;100287.23;2220503;79;20959;-78
2022/05/04 01:45:22;;;;;;;19.37;13.48;;;;;;;8.99;65.92;100286.48;2260862;78;21024;-79
2022/05/04 01:48:24;;;;;;;23.87;13.68;;;;;;;9.09;65.92;100286.39;2258893;78;20983;-78
2022/05/04 01:51:25;;;;;;;23.62;15.55;;;;;;;9.15;65.78;100281.33;2224883;79;21029;-78
2022/05/04 01:54:27;;;;;;;27.17;13.72;;;;;;;9.17;65.59;100283.81;2223151;79;21007;-78
2022/05/04 01:57:28;;;;;;;20.60;13.10;;;;;;;9.22;65.55;100285.51;2255617;78;21008;-79
2022/05/04 02:00:30;;;;;;;20.35;13.38;;;;;;;9.26;65.51;100289.50;2223319;79;20982;-79
2022/05/04 02:03:32;;;;;;;23.02;13.32;;;;;;;9.25;65.73;100285.20;2219006;79;20983;-80
2022/05/04 02:06:34;;;;;;;18.27;12.73;;;;;;;9.22;65.80;100288.66;2220924;79;21039;-77
2022/05/04 02:09:41;;;;;;;20.05;13.48;;;;;;;9.23;65.81;100285.84;2213482;79;20955;-79
2022/05/04 02:12:43;;;;;;;23.22;13.43;;;;;;;9.26;65.72;100286.02;2210063;79;20996;-80
2022/05/04 02:15:44;;;;;;;17.77;13.13;;;;;;;9.31;65.73;100282.42;2237766;79;20965;-78
2022/05/04 02:18:46;;;;;;;17.98;12.70;;;;;;;9.32;65.74;100284.94;2238915;79;20981;-80
2022/05/04 02:21:47;;;;;;;17.02;12.23;;;;;;;9.33;65.80;100276.00;2205864;80;21476;-79
2022/05/04 02:24:49;;;;;;;18.02;12.15;;;;;;;9.36;65.85;100282.30;2203277;79;20959;-79
2022/05/04 02:27:50;;;;;;;22.65;13.30;;;;;;;9.41;65.87;100283.17;2241988;78;21459;-77
2022/05/04 02:30:51;;;;;;;24.92;13.50;;;;;;;9.42;65.71;100284.33;2242015;78;20984;-79
2022/05/04 02:33:53;;;;;;;20.15;13.30;;;;;;;9.47;65.86;100283.05;2209147;79;20919;-80
2022/05/04 02:40:14;;;;;;;18.02;12.20;;;;;;;9.55;65.96;100288.40;2205882;79;20986;-77
2022/05/04 02:43:15;;;;;;;18.15;12.80;;;;;;;9.57;66.15;100292.55;2200257;79;21003;-78
2022/05/04 02:46:19;;;;;;;19.20;13.13;;;;;;;9.61;66.14;100294.39;2208542;79;21029;-79
2022/05/04 02:49:21;;;;;;;21.45;13.18;;;;;;;9.53;65.86;100297.81;2208599;79;20995;-78
2022/05/04 02:52:22;;;;;;;18.15;12.73;;;;;;;9.51;65.95;100298.95;2214045;79;20966;-80
2022/05/04 02:55:24;;;;;;;18.82;11.80;;;;;;;9.52;65.95;100308.58;2213685;79;21010;-79
2022/05/04 02:58:25;;;;;;;22.62;13.13;;;;;;;9.53;66.14;100312.88;2205747;79;21023;-80
2022/05/04 03:04:47;;;;;;;20.23;11.50;;;;;;;9.59;66.44;100317.55;2211153;79;20997;-80
2022/05/04 03:07:48;;;;;;;15.88;11.08;;;;;;;9.54;66.14;100314.53;2206889;79;20944;-76
2022/05/04 03:14:10;;;;;;;17.27;11.22;;;;;;;9.46;66.05;100312.68;2184458;81;21012;-80
2022/05/04 03:17:11;;;;;;;17.60;11.28;;;;;;;9.41;65.99;100309.16;2209823;79;21021;-80
2022/05/04 03:20:13;;;;;;;18.73;12.45;;;;;;;9.41;66.07;100315.78;2214512;79;20955;-79
2022/05/04 03:23:14;;;;;;;19.07;12.70;;;;;;;9.38;66.24;100316.09;2212757;79;20990;-77
2022/05/04 03:26:15;;;;;;;21.93;11.50;;;;;;;9.43;66.32;100319.11;2216085;79;21016;-79
2022/05/04 03:29:17;;;;;;;18.25;10.80;;;;;;;9.41;66.30;100313.12;2222291;79;20961;-80
2022/05/04 03:32:18;;;;;;;17.57;11.63;;;;;;;9.38;66.41;100313.45;2212889;79;22164;-79
2022/05/04 03:35:19;;;;;;;18.30;11.00;;;;;;;9.37;66.42;100315.73;2213825;79;21013;-78
2022/05/04 03:38:21;;;;;;;17.85;10.20;;;;;;;9.41;66.17;100310.48;2216308;79;21005;-77
2022/05/04 03:41:22;;;;;;;17.90;10.90;;;;;;;9.43;66.05;100312.49;2216474;79;20975;-79
2022/05/04 03:44:24;;;;;;;17.25;10.38;;;;;;;9.47;66.00;100314.33;2212582;79;21463;-78
2022/05/04 03:47:25;;;;;;;16.77;10.72;;;;;;;9.51;65.98;100318.81;2220151;79;21028;-79
2022/05/04 03:50:27;;;;;;;18.95;11.18;;;;;;;9.54;65.91;100317.18;2212738;79;21010;-79
2022/05/04 03:53:28;;;;;;;16.40;10.98;;;;;;;9.57;65.82;100328.32;2214042;79;21037;-80
2022/05/04 03:56:30;;;;;;;16.23;10.68;;;;;;;9.60;65.75;100328.01;2212365;79;20995;-79
2022/05/04 03:59:31;;;;;;;17.07;10.88;;;;;;;9.61;65.70;100332.81;2210610;79;21025;-78
2022/05/04 04:02:32;;;;;;;16.77;10.65;;;;;;;9.64;65.77;100334.64;2215955;79;20973;-79
2022/05/04 04:05:34;;;;;;;14.33;9.90;;;;;;;9.69;65.65;100336.02;2213629;79;21009;-79
2022/05/04 04:08:35;;;;;;;13.85;9.60;;;;;;;9.62;65.71;100333.13;2212700;79;21445;-78
2022/05/04 04:11:36;;;;;;;18.75;10.95;;;;;;;9.51;65.84;100332.89;2201101;79;21564;-79
2022/05/04 04:14:38;;;;;;;15.08;10.78;;;;;;;9.37;65.95;100334.77;2170719;81;21005;-77
2022/05/04 04:17:39;;;;;;;16.75;10.28;;;;;;;9.33;66.12;100338.72;2198433;80;21493;-78
2022/05/04 04:24:00;;;;;;;16.12;11.75;;;;;;;9.55;66.30;100335.58;2173503;81;21658;-81
2022/05/04 04:27:02;;;;;;;14.85;10.58;;;;;;;10.00;66.35;100335.03;2216641;79;20961;-80
2022/05/04 04:30:04;;;;;;;16.40;10.08;;;;;;;10.52;66.12;100343.73;2174593;80;20947;-80
2022/05/04 04:33:06;;;;;;;14.05;10.28;;;;;;;11.06;65.53;100345.17;2179918;80;21049;-78
2022/05/04 04:36:08;;;;;;;14.55;10.55;;;;;;;11.34;64.77;100343.03;2162990;80;21063;-78
2022/05/04 04:39:09;;;;;;;16.05;10.25;;;;;;;11.63;64.28;100348.68;2175321;80;21557;-79
2022/05/04 04:42:12;;;;;;;14.20;9.83;;;;;;;12.02;64.20;100345.79;2175475;81;20975;-79
2022/05/04 04:45:14;;;;;;;15.03;10.18;;;;;;;12.34;63.34;100348.86;2194497;80;20988;-79
2022/05/04 04:48:17;;;;;;;16.07;11.68;;;;;;;12.29;62.87;100352.53;2195077;80;20998;-78
2022/05/04 04:51:18;;;;;;;19.92;10.48;;;;;;;12.35;63.04;100354.50;2191927;80;21011;-79
2022/05/04 04:54:20;;;;;;;17.30;11.45;;;;;;;12.42;62.36;100357.32;2196403;80;21058;-78
2022/05/04 04:57:21;;;;;;;17.92;12.33;;;;;;;12.23;61.95;100358.04;2173758;81;20990;-76
2022/05/04 05:00:24;;;;;;;23.77;13.18;;;;;;;12.09;61.74;100360.08;2187029;80;20987;-78
2022/05/04 05:03:26;;;;;;;18.90;11.05;;;;;;;11.93;61.89;100360.94;2190160;80;21018;-77
2022/05/04 05:06:27;;;;;;;22.27;12.05;;;;;;;11.86;61.63;100355.98;2166877;81;21528;-78
2022/05/04 05:09:29;;;;;;;17.20;12.78;;;;;;;11.71;62.02;100350.47;2198220;80;21698;-77
2022/05/04 05:12:30;;;;;;;20.90;12.60;;;;;;;11.66;62.08;100354.98;2209619;79;21021;-77
2022/05/04 05:18:54;;;;;;;19.35;12.28;;;;;;;11.65;62.28;100353.30;2223966;79;21364;-76
2022/05/04 05:21:56;;;;;;;16.73;11.55;;;;;;;11.66;62.16;100355.48;2225872;79;21074;-78
2022/05/04 05:24:57;;;;;;;18.25;11.45;;;;;;;11.62;62.08;100360.28;2225054;79;21877;-78
2022/05/04 05:27:59;;;;;;;21.30;13.00;;;;;;;11.61;61.97;100366.61;2226177;79;20954;-77
2022/05/04 05:31:01;;;;;;;23.05;12.60;;;;;;;11.65;62.03;100363.94;2220028;79;21034;-77
2022/05/04 05:34:02;;;;;;;19.30;12.78;;;;;;;11.77;61.92;100363.12;2227229;79;20976;-76
2022/05/04 05:37:04;;;;;;;17.65;12.53;;;;;;;11.72;61.78;100345.51;2223233;79;20963;-77
2022/05/04 05:40:07;;;;;;;20.97;13.28;;;;;;;11.88;61.57;100359.28;2224902;79;21558;-76
2022/05/04 05:43:09;;;;;;;19.82;12.82;;;;;;;11.82;61.75;100355.95;2231511;79;20993;-77
2022/05/04 05:46:10;;;;;;;18.30;13.25;;;;;;;12.00;61.56;100372.57;2226067;79;21042;-76
2022/05/04 05:49:12;;;;;;;19.87;12.93;;;;;;;12.05;61.31;100375.56;2223404;79;20987;-76
2022/05/04 05:52:13;;;;;;;19.37;13.10;;;;;;;12.18;61.15;100379.00;2230111;79;20990;-77
2022/05/04 05:55:14;;;;;;;24.67;12.80;;;;;;;12.19;60.97;100383.34;2227465;79;21018;-77
2022/05/04 05:58:16;;;;;;;19.67;13.32;;;;;;;12.17;60.85;100381.84;2221647;79;20946;-77
2022/05/04 06:01:17;;;;;;;19.15;13.55;;;;;;;12.18;60.61;100379.00;2227813;79;20971;-77
2022/05/04 06:04:19;;;;;;;21.40;13.62;;;;;;;12.17;60.61;100385.84;2228675;79;20981;-77
2022/05/04 06:07:20;;;;;;;21.93;13.22;;;;;;;12.23;60.77;100381.16;2231636;79;20993;-77
2022/05/04 06:10:22;;;;;;;20.02;13.35;;;;;;;12.33;60.64;100383.95;2224790;79;21049;-75
2022/05/04 06:13:23;;;;;;;19.95;13.90;;;;;;;12.44;60.51;100388.05;2235342;78;20986;-78
2022/05/04 06:16:24;;;;;;;19.62;13.58;;;;;;;12.60;60.92;100384.50;2234715;78;20971;-76
2022/05/04 06:19:26;;;;;;;22.37;13.05;;;;;;;12.72;60.42;100389.76;2228099;78;21022;-77
2022/05/04 06:22:28;;;;;;;19.35;12.47;;;;;;;13.27;60.73;100386.64;2238336;78;21025;-75
2022/05/04 06:25:29;;;;;;;17.35;12.10;;;;;;;13.76;59.46;100380.89;2233486;78;21032;-77
2022/05/04 06:28:31;;;;;;;16.93;12.10;;;;;;;13.99;59.03;100386.16;2238652;78;20939;-77
2022/05/04 06:34:52;;;;;;;21.03;13.10;;;;;;;14.71;58.07;100388.20;2235533;78;20972;-77
2022/05/04 06:37:54;;;;;;;18.23;13.48;;;;;;;15.08;57.02;100390.88;2239797;78;20947;-78
2022/05/04 06:40:55;;;;;;;17.73;13.20;;;;;;;15.22;56.81;100387.33;2239255;78;21056;-77
2022/05/04 06:43:57;;;;;;;17.65;12.88;;;;;;;15.60;56.73;100386.55;2233201;78;22254;-78
2022/05/04 06:46:58;;;;;;;17.60;11.90;;;;;;;16.10;55.98;100390.53;2235240;78;20985;-78
2022/05/04 06:49:59;;;;;;;17.65;12.65;;;;;;;16.32;55.22;100385.42;2239853;78;21048;-77
2022/05/04 06:53:01;;;;;;;17.15;11.75;;;;;;;16.62;54.99;100379.80;2237022;78;21026;-77
2022/05/04 06:56:03;;;;;;;17.55;12.63;;;;;;;17.03;55.03;100385.63;2232260;78;20969;-77
2022/05/04 06:59:04;;;;;;;23.00;13.10;;;;;;;17.36;53.96;100379.50;2203160;78;21014;-78
2022/05/04 07:02:05;;;;;;;21.60;12.88;;;;;;;17.51;53.63;100381.98;2237025;78;20944;-78
2022/05/04 07:05:07;;;;;;;16.67;12.37;;;;;;;17.89;53.19;100384.39;2234669;78;21439;-78
2022/05/04 07:08:08;;;;;;;20.40;12.53;;;;;;;18.19;52.78;100387.12;2231285;78;21588;-77
2022/05/04 07:11:10;;;;;;;18.77;12.73;;;;;;;18.18;52.27;100383.61;2234972;78;20993;-76
2022/05/04 07:14:12;;;;;;;18.15;11.57;;;;;;;18.32;50.95;100387.09;2238090;78;21019;-76
2022/05/04 07:17:14;;;;;;;14.98;11.80;;;;;;;18.58;51.33;100384.83;2237597;78;21064;-77
2022/05/04 07:20:15;;;;;;;21.05;12.60;;;;;;;18.80;50.58;100383.52;2203575;80;20970;-77
2022/05/04 07:23:17;;;;;;;15.20;10.95;;;;;;;18.90;50.11;100390.32;2234724;78;21471;-78
2022/05/04 07:26:18;;;;;;;14.95;11.83;;;;;;;19.08;50.00;100393.09;2240101;78;21020;-77
2022/05/04 07:29:20;;;;;;;17.98;10.70;;;;;;;19.32;49.79;100386.66;2236493;78;21560;-78
2022/05/04 07:32:21;;;;;;;16.27;11.40;;;;;;;19.52;48.25;100384.64;2234547;78;20951;-79
2022/05/04 07:35:22;;;;;;;16.05;11.60;;;;;;;19.66;48.12;100390.77;2233898;78;21057;-80
2022/05/04 07:38:23;;;;;;;15.98;11.93;;;;;;;19.90;47.92;100390.44;2215748;79;21005;-80
2022/05/04 07:44:45;;;;;;;13.25;10.40;;;;;;;19.70;46.11;100386.05;2218617;79;21013;-79
2022/05/04 07:47:46;;;;;;;15.08;10.08;;;;;;;19.58;46.88;100394.52;2214055;79;21098;-80
2022/05/04 07:50:48;;;;;;;16.90;10.23;;;;;;;19.62;45.71;100390.33;2256847;78;20932;-81
2022/05/04 07:53:49;;;;;;;17.07;10.30;;;;;;;19.70;44.51;100391.44;2219957;79;20958;-81
2022/05/04 07:56:50;;;;;;;22.77;10.30;;;;;;;19.52;44.45;100391.89;2228369;79;21592;-81
2022/05/04 08:06:31;;;;;;;13.95;9.78;;;;;;;20.02;43.94;100390.53;2206001;80;21076;-82
2022/05/04 08:09:36;;;;;;;15.08;9.25;;;;;;;20.17;44.16;100390.20;2244155;78;21470;-81
2022/05/04 08:12:38;;;;;;;10.72;8.58;;;;;;;20.23;43.67;100397.38;2235725;78;21117;-81
2022/05/04 08:15:39;;;;;;;12.07;9.20;;;;;;;20.79;43.49;100397.70;2234931;78;21519;-82
2022/05/04 08:18:41;;;;;;;17.45;9.83;;;;;;;21.01;42.69;100399.37;2240203;78;20985;-82
2022/05/04 08:21:42;;;;;;;21.20;10.38;;;;;;;21.11;42.74;100401.52;2237479;78;21025;-81
2022/05/04 08:24:43;;;;;;;13.03;9.55;;;;;;;21.36;42.55;100401.36;2240597;78;21496;-83
2022/05/04 08:27:44;;;;;;;15.38;9.65;;;;;;;21.44;40.97;100403.76;2233616;78;20973;-83
2022/05/04 08:30:46;;;;;;;13.98;9.08;;;;;;;21.17;41.45;100401.94;2240189;78;20990;-81
2022/05/04 08:33:50;;;;;;;13.28;9.53;;;;;;;21.52;41.79;100395.33;2238112;78;20963;-82
2022/05/04 08:36:51;;;;;;;10.05;7.83;;;;;;;21.65;39.73;100396.97;2216715;79;20962;-84
2022/05/04 08:39:53;;;;;;;18.65;9.05;;;;;;;21.36;40.03;100404.88;2221868;79;20962;-82
2022/05/04 08:42:57;;;;;;;13.43;9.10;;;;;;;21.46;41.05;100403.01;2226905;79;20954;-81
2022/05/04 08:46:01;;;;;;;12.28;8.38;;;;;;;21.74;40.52;100401.50;2227092;79;21017;-82
2022/05/04 08:49:03;;;;;;;11.38;7.90;;;;;;;21.58;39.20;100400.33;2221017;79;21010;-81
2022/05/04 08:52:06;;;;;;;13.53;8.45;;;;;;;21.96;40.33;100401.75;2233708;79;21010;-82
2022/05/04 08:55:08;;;;;;;12.37;9.10;;;;;;;22.08;39.41;100394.48;2239286;79;20975;-82
2022/05/04 08:58:10;;;;;;;11.53;8.60;;;;;;;22.63;39.76;100402.70;2242859;79;20986;-83
2022/05/04 09:01:11;;;;;;;10.05;8.15;;;;;;;23.09;39.68;100399.05;2233492;78;21422;-82
2022/05/04 09:04:12;;;;;;;13.20;7.85;;;;;;;23.32;39.33;100393.23;2234168;78;20997;-81
2022/05/04 09:07:25;;;;;;;8.75;7.28;;;;;;;23.29;38.80;100399.95;2245896;78;21038;-82
2022/05/04 09:10:34;;;;;;;12.28;8.75;;;;;;;23.52;38.12;100397.63;2239019;78;20969;-84
2022/05/04 09:13:42;;;;;;;11.43;8.00;;;;;;;22.98;37.50;100393.16;2234653;78;21090;-82
2022/05/04 09:16:43;;;;;;;11.85;7.97;;;;;;;22.75;37.78;100397.56;2234707;78;20987;-83
2022/05/04 09:23:31;;;;;;;8.58;7.50;;;;;;;22.27;36.70;100393.33;2239518;78;21018;-82
2022/05/04 09:26:41;;;;;;;12.73;8.35;;;;;;;22.20;37.12;100393.97;2238896;78;20976;-83
2022/05/04 09:29:42;;;;;;;9.28;6.33;;;;;;;22.44;36.87;100385.31;2237480;78;20965;-81
2022/05/04 09:32:43;;;;;;;7.85;6.20;;;;;;;23.04;36.86;100389.48;2237021;78;21425;-83
2022/05/04 09:35:45;;;;;;;14.87;6.80;;;;;;;23.21;35.14;100388.16;2239114;78;21077;-83
2022/05/04 09:45:36;;;;;;;8.55;5.60;;;;;;;22.95;34.26;100386.85;2233372;78;21006;-81
2022/05/04 09:48:37;;;;;;;6.65;5.28;;;;;;;23.18;34.03;100381.34;2239918;78;20930;-78
2022/05/04 09:51:43;;;;;;;9.73;5.40;;;;;;;23.39;34.21;100378.98;2237532;78;20962;-79
2022/05/04 09:54:45;;;;;;;6.08;4.85;;;;;;;23.51;34.07;100377.04;2239307;78;21458;-80
2022/05/04 09:57:48;;;;;;;8.55;5.83;;;;;;;23.18;33.59;100378.64;2236003;78;21021;-77
2022/05/04 10:00:51;;;;;;;8.60;5.30;;;;;;;23.30;33.90;100377.22;2233761;78;21468;-80
2022/05/04 10:03:53;;;;;;;5.95;4.42;;;;;;;23.54;33.61;100365.71;2235540;78;20934;-79
2022/05/04 10:06:55;;;;;;;8.33;4.78;;;;;;;23.77;32.53;100363.92;2232917;78;21102;-77
2022/05/04 10:09:57;;;;;;;7.00;4.70;;;;;;;23.51;33.43;100363.50;2232902;78;21072;-80
2022/05/04 10:12:58;;;;;;;8.93;4.25;;;;;;;22.95;32.86;100370.62;2229291;78;21038;-79
2022/05/04 10:16:00;;;;;;;6.97;4.50;;;;;;;22.74;33.36;100370.20;2217645;79;21049;-80
2022/05/04 10:19:06;;;;;;;7.53;4.58;;;;;;;22.92;33.75;100371.07;2222829;79;21301;-78
2022/05/04 10:22:10;;;;;;;6.30;4.25;;;;;;;23.01;33.93;100363.72;2218874;79;20970;-78
2022/05/04 10:25:13;;;;;;;8.40;5.22;;;;;;;23.06;33.11;100358.95;2225101;79;20932;-79
2022/05/04 10:28:16;;;;;;;6.50;4.12;;;;;;;22.33;30.84;100359.94;2223897;78;21396;-78
2022/05/04 10:31:17;;;;;;;7.72;4.30;;;;;;;21.73;32.79;100361.53;2222206;79;21038;-79
2022/05/04 10:34:18;;;;;;;8.48;4.80;;;;;;;21.67;32.76;100366.52;2219551;79;21005;-80
2022/05/04 10:37:20;;;;;;;7.50;4.65;;;;;;;21.78;33.17;100352.73;2226911;79;20951;-79
2022/05/04 10:40:40;;;;;;;5.67;4.37;;;;;;;21.89;33.51;100356.78;2225278;79;20969;-80
2022/05/04 10:43:47;;;;;;;5.28;4.10;;;;;;;21.76;32.80;100350.79;2190002;79;20978;-79
2022/05/04 10:46:50;;;;;;;5.25;3.75;;;;;;;21.54;32.73;100351.88;2229338;79;20990;-79
2022/05/04 10:50:00;;;;;;;7.62;4.40;;;;;;;21.41;33.19;100351.06;2202738;79;21030;-78
2022/05/04 10:53:02;;;;;;;5.75;4.33;;;;;;;21.26;33.37;100350.66;2222708;79;21061;-77
2022/05/04 10:56:08;;;;;;;5.53;4.12;;;;;;;21.15;33.72;100348.23;2222446;79;21005;-78
2022/05/04 10:59:10;;;;;;;5.45;4.33;;;;;;;21.21;33.64;100350.53;2224473;79;20966;-77
2022/05/04 11:02:16;;;;;;;6.40;5.05;;;;;;;21.35;33.29;100350.61;2225950;78;21041;-78
2022/05/04 11:05:17;;;;;;;6.42;4.20;;;;;;;21.76;33.38;100340.80;2222672;79;20985;-79
2022/05/04 11:08:25;;;;;;;6.85;4.28;;;;;;;22.13;33.08;100340.03;2217664;79;20974;-78
2022/05/04 11:11:27;;;;;;;5.60;4.47;;;;;;;22.49;32.76;100333.20;2216099;79;20923;-80
2022/05/04 11:14:29;;;;;;;7.80;4.95;;;;;;;22.80;32.74;100328.66;2230272;78;21019;-79
2022/05/04 11:17:33;;;;;;;6.60;4.67;;;;;;;22.98;32.81;100329.58;2236123;78;20998;-78
2022/05/04 11:20:35;;;;;;;6.40;5.33;;;;;;;23.34;32.24;100323.39;2235937;78;20973;-78
2022/05/04 11:23:38;;;;;;;6.53;4.45;;;;;;;23.41;32.17;100333.00;2233622;78;21175;-80
2022/05/04 11:26:43;;;;;;;11.70;4.67;;;;;;;23.62;31.35;100325.19;2201809;80;21410;-79
2022/05/04 11:29:44;;;;;;;6.83;4.50;;;;;;;23.36;31.46;100326.69;2246442;77;20984;-78
2022/05/04 11:32:49;;;;;;;7.47;5.12;;;;;;;23.11;31.68;100325.19;2218171;79;20979;-80
2022/05/04 11:35:56;;;;;;;9.90;5.28;;;;;;;22.55;31.33;100333.08;2245118;77;21536;-80
2022/05/04 11:38:57;;;;;;;5.83;5.22;;;;;;;22.15;31.26;100327.08;2243746;77;20977;-79
2022/05/04 11:42:00;;;;;;;6.00;4.75;;;;;;;22.00;31.45;100331.35;2250225;77;21500;-78
2022/05/04 11:45:02;;;;;;;8.10;4.60;;;;;;;21.86;31.56;100328.89;2239973;77;21519;-77
2022/05/04 11:48:04;;;;;;;5.65;4.60;;;;;;;21.67;31.88;100326.83;2244788;77;20988;-80
2022/05/04 11:51:06;;;;;;;8.83;4.58;;;;;;;21.54;32.24;100327.59;2236113;78;21033;-78
2022/05/04 11:54:07;;;;;;;8.70;4.97;;;;;;;21.85;32.77;100323.20;2232949;78;21063;-78
2022/05/04 11:57:13;;;;;;;5.55;4.60;;;;;;;22.02;32.17;100322.46;2206320;79;21465;-78
2022/05/04 12:00:16;;;;;;;8.43;5.12;;;;;;;21.83;32.29;100316.39;2212668;79;21008;-79
2022/05/04 12:03:17;;;;;;;10.43;4.95;;;;;;;21.70;33.04;100315.56;2205816;79;21502;-80
2022/05/04 12:06:21;;;;;;;8.53;5.05;;;;;;;21.86;32.73;100314.03;2212237;79;20918;-79
2022/05/04 12:09:23;;;;;;;7.92;4.78;;;;;;;22.02;32.65;100313.00;2203383;79;20993;-78
2022/05/04 12:12:24;;;;;;;11.63;5.10;;;;;;;21.74;32.81;100314.59;2201366;79;21022;-77
2022/05/04 12:15:30;;;;;;;5.00;4.50;;;;;;;21.63;32.58;100303.26;2212694;79;20983;-79
2022/05/04 12:18:34;;;;;;;8.80;4.95;;;;;;;21.87;33.37;100306.22;2211586;79;21043;-80
2022/05/04 12:21:35;;;;;;;7.70;5.00;;;;;;;21.92;33.27;100306.33;2217758;79;21130;-80
2022/05/04 12:24:36;;;;;;;6.67;4.80;;;;;;;22.23;31.62;100303.49;2216092;79;20993;-78
2022/05/04 12:27:38;;;;;;;9.80;4.60;;;;;;;21.95;32.78;100298.28;2218680;79;21025;-77
2022/05/04 12:34:02;;;;;;;6.58;4.22;;;;;;;22.10;32.76;100299.13;2215691;79;20971;-79
2022/05/04 12:37:03;;;;;;;7.42;5.00;;;;;;;22.08;32.49;100292.63;2228602;79;21050;-79
2022/05/04 12:40:05;;;;;;;8.60;5.08;;;;;;;22.06;32.16;100285.82;2233889;79;21592;-79
2022/05/04 12:43:08;;;;;;;8.20;4.92;;;;;;;21.98;32.38;100284.84;2235170;79;20977;-79
2022/05/04 12:46:12;;;;;;;6.47;4.80;;;;;;;21.98;32.89;100280.78;2234696;79;21025;-81
2022/05/04 12:49:14;;;;;;;6.35;4.67;;;;;;;22.11;33.44;100279.17;2238161;79;20962;-78
2022/05/04 12:52:15;;;;;;;6.28;4.72;;;;;;;22.17;32.72;100280.92;2233353;79;21058;-78
2022/05/04 12:55:18;;;;;;;8.30;4.67;;;;;;;22.23;32.47;100277.28;2236472;79;21036;-78
2022/05/04 12:58:19;;;;;;;16.48;5.05;;;;;;;22.14;33.16;100278.16;2236944;79;20975;-79
2022/05/04 13:01:25;;;;;;;6.08;4.78;;;;;;;22.19;32.87;100271.23;2230115;78;20943;-78
2022/05/04 13:04:26;;;;;;;8.58;4.40;;;;;;;22.24;32.37;100274.86;2238105;79;20954;-79
2022/05/04 13:07:27;;;;;;;9.53;4.90;;;;;;;22.27;32.82;100271.70;2240522;78;20953;-79
2022/05/04 13:10:30;;;;;;;7.92;4.22;;;;;;;22.46;32.80;100270.97;2232983;78;21021;-80
2022/05/04 13:13:32;;;;;;;10.48;4.62;;;;;;;22.45;32.75;100265.82;2237514;78;21006;-78
2022/05/04 13:16:34;;;;;;;8.05;4.75;;;;;;;22.43;32.29;100264.70;2231247;78;20978;-79
2022/05/04 13:19:36;;;;;;;11.45;4.42;;;;;;;22.29;32.33;100258.75;2224064;78;21594;-79
2022/05/04 13:22:37;;;;;;;7.75;4.85;;;;;;;22.19;31.77;100259.08;2220975;78;21488;-78
2022/05/04 13:25:38;;;;;;;8.40;4.60;;;;;;;22.06;32.14;100248.81;2224565;78;21011;-79
2022/05/04 13:28:40;;;;;;;8.50;4.87;;;;;;;21.75;32.56;100249.23;2221859;78;21040;-79
2022/05/04 13:31:41;;;;;;;7.42;4.75;;;;;;;21.60;32.89;100253.78;2222710;78;20986;-79
2022/05/04 13:34:43;;;;;;;7.15;4.90;;;;;;;21.63;33.16;100259.52;2228279;78;21016;-80
2022/05/04 13:37:44;;;;;;;6.25;4.67;;;;;;;21.26;32.60;100248.13;2228465;78;21045;-80
2022/05/04 13:40:46;;;;;;;7.17;4.62;;;;;;;20.96;33.11;100251.70;2224284;78;21500;-79
2022/05/04 13:43:47;;;;;;;15.80;5.17;;;;;;;20.88;32.97;100248.00;2219301;78;20955;-79
2022/05/04 13:46:48;;;;;;;6.15;4.80;;;;;;;20.88;33.48;100245.30;2223121;78;22218;-79
2022/05/04 13:49:49;;;;;;;6.45;4.45;;;;;;;20.95;33.16;100250.08;2225803;78;21002;-79
2022/05/04 13:56:10;;;;;;;10.40;5.00;;;;;;;20.74;33.84;100247.37;2224599;78;21068;-79
2022/05/04 13:59:11;;;;;;;11.70;4.60;;;;;;;20.85;33.51;100252.51;2215844;78;21025;-80
2022/05/04 14:02:13;;;;;;;10.10;4.62;;;;;;;20.84;33.21;100245.48;2223815;78;21012;-79
2022/05/04 14:05:14;;;;;;;8.50;5.00;;;;;;;20.58;33.49;100248.88;2225587;78;21520;-79
2022/05/04 14:08:15;;;;;;;10.82;4.62;;;;;;;20.46;33.93;100249.30;2227656;78;20973;-79
2022/05/04 14:11:17;;;;;;;5.97;4.37;;;;;;;20.40;33.73;100240.79;2229698;78;21028;-79
2022/05/04 14:17:38;;;;;;;5.50;4.15;;;;;;;20.36;33.91;100240.43;2221593;78;21007;-78
2022/05/04 14:20:40;;;;;;;11.38;5.22;;;;;;;20.36;34.12;100246.35;2221635;78;21025;-79
2022/05/04 14:23:41;;;;;;;9.40;4.40;;;;;;;20.25;34.10;100243.08;2222639;78;21017;-79
2022/05/04 14:26:42;;;;;;;5.50;4.53;;;;;;;20.18;34.29;100240.45;2226780;78;20924;-79
2022/05/04 14:29:43;;;;;;;9.78;5.00;;;;;;;20.18;34.54;100240.98;2224989;78;20965;-80
2022/05/04 14:32:45;;;;;;;5.92;4.53;;;;;;;20.10;34.08;100238.91;2226264;78;21651;-80
2022/05/04 14:35:46;;;;;;;10.23;4.87;;;;;;;20.08;34.66;100238.31;2220301;78;21044;-78
2022/05/04 14:38:48;;;;;;;6.62;4.17;;;;;;;20.15;34.40;100238.21;2221620;78;21043;-79
2022/05/04 14:41:49;;;;;;;9.53;5.00;;;;;;;20.09;34.51;100231.05;2223618;78;21030;-78
2022/05/04 14:44:50;;;;;;;8.05;4.47;;;;;;;19.85;34.55;100233.62;2233447;78;20946;-78
2022/05/04 14:47:51;;;;;;;6.75;4.15;;;;;;;19.67;34.83;100233.07;2194905;78;20944;-79